Time;durP1;ratioP1;P1;durP2;ratioP2;P2;SDS_P1;SDS_P2;PMS_P1;PMS_P2;Temp;Humidity;BMP_temperature;BMP_pressure;BME280_temperature;BME280_humidity;BME280_pressure;Samples;Min_cycle;Max_cycle;Signal;HPM_P1;HPM_P2
2021/10/06 00:02:06;;;;;;;6.75;1.10;;;;;;;12.25;83.53;100212.56;4904198;28;20148;-86
2021/10/06 00:04:32;;;;;;;3.72;1.25;;;;;;;12.16;83.86;100208.41;4921231;28;20054;-85
2021/10/06 00:06:59;;;;;;;3.35;0.75;;;;;;;12.07;84.42;100221.69;4920089;28;20058;-85
2021/10/06 00:09:26;;;;;;;6.70;0.90;;;;;;;12.03;84.39;100218.31;4921233;28;20078;-85
2021/10/06 00:11:52;;;;;;;2.97;0.80;;;;;;;12.02;84.45;100216.56;4903681;28;20055;-86
2021/10/06 00:14:20;;;;;;;5.55;1.73;;;;;;;11.99;84.74;100221.88;4921232;28;20059;-85
2021/10/06 00:16:47;;;;;;;3.58;0.90;;;;;;;11.96;84.49;100219.31;4919763;28;20047;-85
2021/10/06 00:19:14;;;;;;;3.45;1.08;;;;;;;11.98;84.93;100219.28;4918539;28;20058;-85
2021/10/06 00:21:40;;;;;;;2.17;1.05;;;;;;;12.02;84.29;100226.19;4922789;28;20047;-85
2021/10/06 00:24:07;;;;;;;3.38;1.00;;;;;;;12.02;84.54;100213.94;4919759;28;20051;-85
2021/10/06 00:26:34;;;;;;;2.40;0.98;;;;;;;12.04;84.14;100219.16;4919370;28;20188;-85
2021/10/06 00:29:00;;;;;;;3.95;0.95;;;;;;;12.08;83.84;100218.19;4923893;28;20395;-85
2021/10/06 00:31:27;;;;;;;1.33;0.90;;;;;;;12.16;83.60;100216.28;4917858;28;20054;-85
2021/10/06 00:33:53;;;;;;;2.35;0.98;;;;;;;12.21;83.26;100226.66;4920392;28;20053;-85
2021/10/06 00:36:20;;;;;;;3.92;0.90;;;;;;;12.23;83.09;100228.34;4936054;28;20043;-85
2021/10/06 00:38:47;;;;;;;2.22;0.55;;;;;;;12.23;83.22;100233.59;4920034;28;20062;-85
2021/10/06 00:41:13;;;;;;;2.03;0.80;;;;;;;12.19;83.55;100241.56;4922279;28;20051;-84
2021/10/06 00:43:40;;;;;;;1.92;1.08;;;;;;;12.07;83.87;100240.94;4901645;28;20059;-85
2021/10/06 00:46:06;;;;;;;5.13;1.33;;;;;;;11.97;84.54;100246.41;4905513;28;20094;-85
2021/10/06 00:48:33;;;;;;;2.67;0.70;;;;;;;11.88;84.71;100248.31;4907493;28;20087;-85
2021/10/06 00:51:00;;;;;;;2.45;1.05;;;;;;;11.84;85.84;100248.41;4922705;28;20051;-85
2021/10/06 00:53:28;;;;;;;1.55;0.70;;;;;;;11.79;85.58;100251.13;4918977;28;20078;-84
2021/10/06 00:55:55;;;;;;;2.83;0.82;;;;;;;11.79;85.91;100250.25;4921294;28;20058;-85
2021/10/06 00:58:23;;;;;;;4.78;1.40;;;;;;;11.72;86.23;100249.50;4919451;28;20066;-85
2021/10/06 01:00:49;;;;;;;1.60;0.90;;;;;;;11.66;87.26;100247.03;4908707;28;20447;-85
2021/10/06 01:03:20;;;;;;;4.32;0.80;;;;;;;11.66;87.01;100260.97;4902951;28;20051;-85
2021/10/06 01:05:48;;;;;;;2.05;1.00;;;;;;;11.64;86.81;100265.41;4905732;28;20118;-85
2021/10/06 01:08:15;;;;;;;5.10;0.90;;;;;;;11.62;87.00;100261.94;4936476;28;20138;-85
2021/10/06 01:10:42;;;;;;;3.78;0.80;;;;;;;11.65;87.42;100271.50;4906605;28;20503;-85
2021/10/06 01:13:11;;;;;;;2.92;1.00;;;;;;;11.69;86.97;100270.53;4917186;28;20055;-84
2021/10/06 01:15:37;;;;;;;5.07;2.50;;;;;;;11.72;86.81;100280.97;4916383;28;20519;-84
2021/10/06 01:18:04;;;;;;;3.25;1.30;;;;;;;11.74;86.68;100285.28;4904864;28;20849;-85
2021/10/06 01:20:33;;;;;;;1.98;1.13;;;;;;;11.78;86.13;100280.00;4903511;28;20593;-85
2021/10/06 01:23:00;;;;;;;2.08;0.90;;;;;;;11.74;86.40;100276.56;4936658;28;20417;-85
2021/10/06 01:25:26;;;;;;;1.85;0.65;;;;;;;11.67;86.39;100277.59;4908866;28;20142;-85
2021/10/06 01:27:53;;;;;;;4.32;1.38;;;;;;;11.62;87.13;100282.06;4920137;28;20043;-86
2021/10/06 01:30:19;;;;;;;4.22;0.88;;;;;;;11.61;87.24;100281.19;4909907;28;20061;-85
2021/10/06 01:32:47;;;;;;;5.22;1.75;;;;;;;11.61;87.16;100283.81;4919357;28;20628;-85
2021/10/06 01:35:16;;;;;;;4.10;1.38;;;;;;;11.63;86.88;100286.41;4919890;28;20057;-85
2021/10/06 01:37:46;;;;;;;3.28;1.10;;;;;;;11.59;87.03;100280.38;4922970;28;20058;-85
2021/10/06 01:40:20;;;;;;;2.97;0.88;;;;;;;11.55;86.49;100283.91;4917075;28;20051;-84
2021/10/06 01:42:47;;;;;;;3.97;1.17;;;;;;;11.52;86.62;100289.22;4919259;28;20742;-85
2021/10/06 01:45:24;;;;;;;1.15;1.05;;;;;;;11.52;87.18;100287.47;4918291;28;20051;-85
2021/10/06 01:47:52;;;;;;;4.40;0.95;;;;;;;11.53;86.84;100293.59;4922583;28;20548;-85
2021/10/06 01:50:25;;;;;;;3.85;1.38;;;;;;;11.52;86.72;100291.84;4904324;28;20075;-85
2021/10/06 01:52:54;;;;;;;4.07;1.40;;;;;;;11.48;86.40;100293.66;4904438;28;20378;-85
2021/10/06 01:55:29;;;;;;;1.30;0.90;;;;;;;11.45;87.28;100296.34;4921220;28;21354;-85
2021/10/06 01:58:01;;;;;;;3.60;1.25;;;;;;;11.41;86.91;100294.69;4919494;28;20061;-85
2021/10/06 02:00:28;;;;;;;5.82;1.52;;;;;;;11.41;86.97;100295.53;4919347;28;20062;-84
2021/10/06 02:02:55;;;;;;;4.82;1.05;;;;;;;11.44;87.21;100305.09;4916233;28;20058;-85
2021/10/06 02:05:23;;;;;;;2.83;0.95;;;;;;;11.42;87.37;100297.25;4905089;28;20122;-85
2021/10/06 02:07:49;;;;;;;1.23;0.90;;;;;;;11.46;87.17;100302.44;4904411;28;20403;-85
2021/10/06 02:10:16;;;;;;;0.70;0.70;;;;;;;11.46;87.12;100300.69;4907001;28;20051;-84
2021/10/06 02:12:42;;;;;;;3.05;1.20;;;;;;;11.48;86.72;100305.91;4918604;28;20058;-85
2021/10/06 02:15:10;;;;;;;4.50;1.60;;;;;;;11.42;86.35;100301.66;4902578;28;20075;-85
2021/10/06 02:17:36;;;;;;;5.43;0.95;;;;;;;11.32;87.02;100300.94;4905211;28;20399;-84
2021/10/06 02:20:05;;;;;;;2.85;1.15;;;;;;;11.22;88.14;100309.84;4921529;28;20091;-85
2021/10/06 02:22:31;;;;;;;2.13;1.10;;;;;;;11.17;88.29;100317.81;4902282;28;20418;-84
2021/10/06 02:24:58;;;;;;;2.28;1.10;;;;;;;11.11;88.92;100319.63;4922028;28;20061;-84
2021/10/06 02:27:25;;;;;;;2.92;0.90;;;;;;;11.08;89.10;100323.16;4903381;28;20070;-84
2021/10/06 02:29:51;;;;;;;1.10;1.00;;;;;;;11.10;88.67;100316.16;4908729;28;20078;-85
2021/10/06 02:32:18;;;;;;;0.95;0.95;;;;;;;11.14;88.37;100323.06;4920817;28;20138;-84
2021/10/06 02:34:44;;;;;;;3.88;0.77;;;;;;;11.10;88.06;100321.41;4907957;28;20061;-84
2021/10/06 02:37:10;;;;;;;4.20;1.17;;;;;;;11.00;88.80;100320.69;4909973;28;20620;-84
2021/10/06 02:39:37;;;;;;;3.72;0.90;;;;;;;10.91;89.33;100319.09;4906330;28;20063;-84
2021/10/06 02:42:04;;;;;;;5.05;1.25;;;;;;;10.85;89.61;100318.31;4924109;28;20039;-84
2021/10/06 02:44:40;;;;;;;3.03;1.13;;;;;;;10.83;89.77;100333.19;4921868;28;20051;-83
2021/10/06 02:47:07;;;;;;;0.80;0.80;;;;;;;10.83;89.72;100320.94;4908780;28;20178;-84
2021/10/06 02:49:33;;;;;;;2.17;0.90;;;;;;;10.86;89.51;100331.38;4922850;28;20515;-85
2021/10/06 02:52:00;;;;;;;2.63;0.88;;;;;;;10.91;89.61;100334.81;4918632;28;20051;-85
2021/10/06 02:54:26;;;;;;;1.85;1.48;;;;;;;10.93;89.24;100337.38;4921079;28;20043;-85
2021/10/06 02:56:53;;;;;;;2.00;1.20;;;;;;;10.93;88.62;100340.00;4903465;28;20998;-85
2021/10/06 02:59:19;;;;;;;1.38;1.33;;;;;;;10.92;88.65;100344.38;4910095;28;20051;-85
2021/10/06 03:01:46;;;;;;;1.52;1.33;;;;;;;10.95;89.09;100348.72;4919071;28;20058;-85
2021/10/06 03:04:12;;;;;;;1.33;1.23;;;;;;;11.02;88.97;100347.72;4922837;28;20059;-85
2021/10/06 03:06:39;;;;;;;2.85;1.17;;;;;;;11.00;88.24;100346.91;4924167;28;20066;-85
2021/10/06 03:09:05;;;;;;;1.85;1.00;;;;;;;10.95;88.29;100347.84;4904281;28;20043;-85
2021/10/06 03:11:32;;;;;;;5.13;1.52;;;;;;;10.87;88.86;100359.31;4911718;28;20574;-85
2021/10/06 03:13:58;;;;;;;3.40;1.73;;;;;;;10.85;89.29;100363.69;4902332;28;20047;-85
2021/10/06 03:16:25;;;;;;;3.08;1.40;;;;;;;10.91;89.34;100361.00;4908000;28;20173;-84
2021/10/06 03:18:51;;;;;;;4.82;1.50;;;;;;;11.01;88.45;100360.84;4922908;28;20583;-84
2021/10/06 03:21:18;;;;;;;3.22;1.30;;;;;;;11.08;88.06;100368.59;4904314;28;20073;-85
2021/10/06 03:23:44;;;;;;;2.80;1.27;;;;;;;11.05;88.10;100362.53;4920307;28;20075;-85
2021/10/06 03:26:11;;;;;;;1.30;1.10;;;;;;;10.99;88.21;100360.88;4917005;28;20454;-85
2021/10/06 03:28:37;;;;;;;8.27;2.00;;;;;;;10.95;89.71;100360.94;4921822;28;21096;-85
2021/10/06 03:31:04;;;;;;;5.63;1.58;;;;;;;10.93;89.24;100363.56;4919887;28;20071;-85
2021/10/06 03:33:30;;;;;;;2.75;1.40;;;;;;;10.89;89.24;100367.13;4921957;28;20102;-84
2021/10/06 03:35:57;;;;;;;3.05;1.70;;;;;;;10.82;89.51;100366.38;4909168;28;20051;-85
2021/10/06 03:38:24;;;;;;;4.40;2.10;;;;;;;10.74;89.52;100370.81;4902438;28;20073;-85
2021/10/06 03:40:51;;;;;;;6.50;1.60;;;;;;;10.68;90.32;100374.41;4908615;28;20412;-85
2021/10/06 03:43:17;;;;;;;2.97;1.48;;;;;;;10.61;90.76;100377.13;4919653;28;20129;-85
2021/10/06 03:45:44;;;;;;;6.35;1.70;;;;;;;10.58;91.73;100384.13;4901744;28;20062;-85
2021/10/06 03:48:10;;;;;;;5.63;2.35;;;;;;;10.56;91.04;100388.53;4905795;28;20047;-84
2021/10/06 03:50:37;;;;;;;1.58;1.48;;;;;;;10.46;91.41;100389.53;4922259;28;20587;-85
2021/10/06 03:53:04;;;;;;;3.97;2.17;;;;;;;10.40;92.55;100390.47;4922484;28;20039;-84
2021/10/06 03:55:31;;;;;;;1.73;1.40;;;;;;;10.33;92.65;100390.53;4903264;28;20431;-84
2021/10/06 03:57:58;;;;;;;9.68;3.28;;;;;;;10.24;93.66;100394.97;4923171;28;20100;-84
2021/10/06 04:00:25;;;;;;;7.03;2.22;;;;;;;10.17;93.80;100390.72;4920147;28;20051;-84
2021/10/06 04:02:52;;;;;;;3.25;2.67;;;;;;;10.12;94.57;100400.38;4908698;28;20050;-84
2021/10/06 04:05:18;;;;;;;2.45;1.83;;;;;;;10.09;94.29;100403.88;4919848;28;20739;-85
2021/10/06 04:07:45;;;;;;;8.05;2.22;;;;;;;10.04;94.21;100397.84;4922826;28;20422;-84
2021/10/06 04:10:12;;;;;;;5.05;1.83;;;;;;;9.99;95.55;100399.63;4919633;28;20051;-84
2021/10/06 04:12:38;;;;;;;2.47;2.17;;;;;;;10.00;95.39;100408.34;4919735;28;20050;-85
2021/10/06 04:15:05;;;;;;;5.85;2.38;;;;;;;9.98;95.40;100402.28;4924806;28;20051;-84
2021/10/06 04:17:37;;;;;;;4.60;3.08;;;;;;;9.98;95.81;100408.34;4918340;28;20138;-84
2021/10/06 04:20:05;;;;;;;2.20;2.10;;;;;;;9.94;95.05;100409.28;4902535;28;20058;-84
2021/10/06 04:22:31;;;;;;;6.10;2.33;;;;;;;9.87;95.77;100415.47;4917740;28;20130;-84
2021/10/06 04:24:58;;;;;;;3.15;1.95;;;;;;;9.89;96.14;100408.44;4920011;28;20053;-84
2021/10/06 04:27:24;;;;;;;3.17;1.95;;;;;;;9.91;95.79;100412.78;4923354;28;20083;-84
2021/10/06 04:29:51;;;;;;;2.53;1.73;;;;;;;9.86;95.28;100422.41;4900800;28;20055;-83
2021/10/06 04:32:18;;;;;;;4.10;1.85;;;;;;;9.93;95.53;100425.84;4918720;28;20051;-84
2021/10/06 04:34:44;;;;;;;5.20;1.50;;;;;;;9.94;95.13;100428.44;4907846;28;20062;-84
2021/10/06 04:37:13;;;;;;;6.10;1.98;;;;;;;9.92;95.33;100424.09;4924739;28;20106;-84
2021/10/06 04:39:40;;;;;;;2.60;1.73;;;;;;;9.90;95.05;100421.50;4918630;28;20055;-84
2021/10/06 04:42:07;;;;;;;2.80;1.65;;;;;;;9.86;95.03;100425.03;4920177;28;20051;-85
2021/10/06 04:44:34;;;;;;;4.07;1.20;;;;;;;9.82;95.21;100430.31;4919914;28;20054;-85
2021/10/06 04:47:01;;;;;;;3.50;1.23;;;;;;;9.80;95.10;100435.53;4914710;28;20050;-84
2021/10/06 04:49:28;;;;;;;4.82;1.85;;;;;;;9.77;95.69;100446.88;4922689;28;20061;-84
2021/10/06 04:51:54;;;;;;;4.35;1.90;;;;;;;9.79;95.38;100446.00;4901669;28;20051;-84
2021/10/06 04:54:21;;;;;;;3.25;1.60;;;;;;;9.82;95.22;100443.41;4917992;28;20051;-83
2021/10/06 04:56:47;;;;;;;1.45;1.30;;;;;;;9.79;94.88;100451.25;4905463;28;20050;-84
2021/10/06 04:59:14;;;;;;;2.75;2.05;;;;;;;9.73;95.19;100454.78;4915829;28;20055;-84
2021/10/06 05:01:41;;;;;;;1.75;1.42;;;;;;;9.73;95.81;100465.25;4919902;28;20525;-84
2021/10/06 05:04:07;;;;;;;4.85;1.92;;;;;;;9.72;95.27;100466.13;4919294;28;20069;-84
2021/10/06 05:06:34;;;;;;;5.82;2.35;;;;;;;9.66;95.12;100461.81;4937484;28;20403;-84
2021/10/06 05:09:01;;;;;;;1.98;1.65;;;;;;;9.66;95.46;100464.44;4917948;28;20526;-84
2021/10/06 05:11:29;;;;;;;1.92;1.83;;;;;;;9.63;95.92;100463.59;4902754;28;20067;-85
2021/10/06 05:13:58;;;;;;;5.38;2.65;;;;;;;9.62;95.34;100460.13;4920132;28;20062;-84
2021/10/06 05:16:24;;;;;;;6.63;1.98;;;;;;;9.64;94.33;100460.09;4916572;28;20047;-84
2021/10/06 05:18:51;;;;;;;4.70;1.75;;;;;;;9.63;94.73;100468.81;4919062;28;20059;-84
2021/10/06 05:21:17;;;;;;;3.50;2.00;;;;;;;9.60;94.50;100467.09;4934487;28;21014;-84
2021/10/06 05:23:44;;;;;;;4.40;1.30;;;;;;;9.54;94.58;100469.75;4919098;28;20606;-84
2021/10/06 05:26:10;;;;;;;2.13;1.17;;;;;;;9.53;94.69;100474.13;4918371;28;20503;-84
2021/10/06 05:28:37;;;;;;;5.63;1.50;;;;;;;9.54;94.42;100472.34;4933625;28;20043;-85
2021/10/06 05:31:03;;;;;;;1.77;1.25;;;;;;;9.54;95.03;100475.84;4904001;28;20165;-84
2021/10/06 05:33:30;;;;;;;3.35;1.70;;;;;;;9.54;94.86;100478.47;4914464;28;20067;-84
2021/10/06 05:35:57;;;;;;;2.60;1.73;;;;;;;9.53;94.57;100488.91;4919202;28;20059;-84
2021/10/06 05:38:23;;;;;;;1.48;1.42;;;;;;;9.53;94.75;100488.91;4922645;28;20059;-84
2021/10/06 05:40:50;;;;;;;3.97;1.52;;;;;;;9.51;94.78;100494.16;4916192;28;20139;-85
2021/10/06 05:43:17;;;;;;;4.60;1.83;;;;;;;9.52;95.30;100500.25;4936647;28;20525;-84
2021/10/06 05:45:44;;;;;;;1.95;1.65;;;;;;;9.53;95.23;100499.38;4902012;28;20055;-84
2021/10/06 05:48:10;;;;;;;4.68;1.80;;;;;;;9.59;95.01;100513.28;4917681;28;20046;-84
2021/10/06 05:50:36;;;;;;;2.15;1.98;;;;;;;9.75;94.87;100513.13;4904510;28;20051;-85
2021/10/06 05:53:05;;;;;;;3.65;1.77;;;;;;;9.95;93.98;100520.84;4920650;28;20035;-84
2021/10/06 05:55:31;;;;;;;6.40;1.40;;;;;;;10.08;92.66;100524.22;4901873;28;23311;-87
2021/10/06 05:57:59;;;;;;;2.10;1.35;;;;;;;10.07;92.41;100527.69;4899607;28;20079;-86
2021/10/06 06:00:25;;;;;;;4.50;1.20;;;;;;;10.06;92.61;100524.22;4906409;28;20058;-84
2021/10/06 06:02:52;;;;;;;2.25;1.38;;;;;;;10.05;92.15;100532.94;4900432;28;20102;-86
2021/10/06 06:05:19;;;;;;;2.80;1.65;;;;;;;9.98;92.41;100523.41;4905631;28;20138;-84
2021/10/06 06:07:47;;;;;;;3.97;1.30;;;;;;;9.95;92.50;100533.91;4910619;28;20049;-83
2021/10/06 06:10:15;;;;;;;1.65;1.00;;;;;;;9.92;93.17;100528.69;4920950;28;20466;-84
2021/10/06 06:12:43;;;;;;;2.70;1.30;;;;;;;9.94;93.05;100529.56;4923832;28;20051;-83
2021/10/06 06:15:10;;;;;;;1.55;1.45;;;;;;;9.96;92.83;100532.16;4906512;28;20047;-83
2021/10/06 06:17:37;;;;;;;2.22;0.80;;;;;;;9.99;92.52;100534.75;4923424;28;20154;-84
2021/10/06 06:20:11;;;;;;;3.58;0.90;;;;;;;10.04;92.41;100536.44;4917507;28;20062;-85
2021/10/06 06:22:39;;;;;;;3.15;1.02;;;;;;;10.13;91.85;100543.34;4907343;28;20054;-84
2021/10/06 06:25:09;;;;;;;2.50;1.10;;;;;;;10.16;91.76;100543.31;4908612;28;20047;-84
2021/10/06 06:27:36;;;;;;;1.85;1.00;;;;;;;10.20;91.50;100546.78;4921482;28;20113;-83
2021/10/06 06:30:04;;;;;;;4.30;1.85;;;;;;;10.23;91.11;100546.72;4910542;28;20051;-84
2021/10/06 06:32:31;;;;;;;0.95;0.90;;;;;;;10.30;90.50;100537.06;4920100;28;20039;-85
2021/10/06 06:34:57;;;;;;;3.65;0.63;;;;;;;10.43;89.66;100546.59;4922992;28;20505;-85
2021/10/06 06:37:24;;;;;;;5.80;1.88;;;;;;;10.58;89.09;100538.56;4925002;28;20410;-84
2021/10/06 06:39:50;;;;;;;2.08;1.88;;;;;;;10.84;88.05;100550.50;4920444;28;20055;-85
2021/10/06 06:42:17;;;;;;;1.83;1.17;;;;;;;11.23;85.96;100548.25;4938681;28;20126;-84
2021/10/06 06:44:44;;;;;;;2.63;1.50;;;;;;;11.74;83.20;100547.53;4900494;28;20051;-85
2021/10/06 06:47:10;;;;;;;1.27;0.60;;;;;;;12.10;81.61;100551.38;4909659;28;20138;-86
2021/10/06 06:49:37;;;;;;;1.13;0.98;;;;;;;12.24;79.95;100554.63;4922449;28;20138;-84
2021/10/06 06:52:04;;;;;;;0.80;0.80;;;;;;;12.35;79.05;100562.31;4924969;28;20047;-85
2021/10/06 06:54:31;;;;;;;1.88;0.70;;;;;;;12.37;79.01;100557.91;4909198;28;20044;-84
2021/10/06 06:56:58;;;;;;;1.42;0.43;;;;;;;12.34;78.45;100564.06;4920325;28;20480;-84
2021/10/06 06:59:24;;;;;;;3.20;1.10;;;;;;;12.54;78.17;100566.34;4925065;28;20528;-84
2021/10/06 07:01:51;;;;;;;3.80;0.88;;;;;;;12.97;74.98;100567.28;4902535;28;20039;-84
2021/10/06 07:04:17;;;;;;;1.75;0.50;;;;;;;13.36;75.23;100567.38;4923202;28;20430;-85
2021/10/06 07:06:44;;;;;;;3.42;0.68;;;;;;;13.80;73.20;100572.50;4922878;28;22832;-85
2021/10/06 07:09:10;;;;;;;1.23;0.65;;;;;;;14.04;72.42;100573.69;4903860;28;20043;-85
2021/10/06 07:11:37;;;;;;;3.85;0.57;;;;;;;14.29;69.55;100580.97;4924176;28;20074;-84
2021/10/06 07:14:04;;;;;;;5.25;0.88;;;;;;;14.75;69.84;100578.91;4919641;28;20043;-85
2021/10/06 07:16:30;;;;;;;2.88;1.02;;;;;;;15.26;67.11;100582.72;4922079;28;20130;-84
2021/10/06 07:18:57;;;;;;;1.35;0.43;;;;;;;15.47;65.04;100577.72;4921662;28;20051;-86
2021/10/06 07:21:23;;;;;;;2.30;0.82;;;;;;;15.59;60.77;100577.38;4920782;28;20153;-86
2021/10/06 07:23:51;;;;;;;1.75;0.40;;;;;;;15.76;63.57;100586.50;4920643;28;20142;-86
2021/10/06 07:26:18;;;;;;;2.75;0.43;;;;;;;15.58;62.36;100580.03;4917806;28;20576;-85
2021/10/06 07:28:45;;;;;;;3.20;0.43;;;;;;;15.27;62.93;100576.56;4906155;28;20059;-84
2021/10/06 07:31:11;;;;;;;1.70;0.43;;;;;;;14.84;63.13;100581.28;4905656;28;20058;-84
2021/10/06 07:33:38;;;;;;;2.72;0.45;;;;;;;14.33;64.77;100589.66;4935970;28;20047;-84
2021/10/06 07:36:04;;;;;;;0.60;0.60;;;;;;;13.95;66.54;100592.34;4909640;28;20047;-84
2021/10/06 07:38:31;;;;;;;2.28;0.45;;;;;;;13.56;67.27;100595.84;4919127;28;20914;-84
2021/10/06 07:40:57;;;;;;;2.38;0.60;;;;;;;13.18;68.51;100604.50;4909627;28;20745;-84
2021/10/06 07:43:24;;;;;;;2.13;0.73;;;;;;;12.93;69.52;100599.75;4905859;28;20047;-84
2021/10/06 07:45:51;;;;;;;6.07;0.57;;;;;;;12.80;70.11;100611.38;4919434;28;20043;-84
2021/10/06 07:48:17;;;;;;;1.30;0.80;;;;;;;12.74;70.96;100615.00;4906444;28;20048;-84
2021/10/06 07:50:44;;;;;;;4.30;1.15;;;;;;;12.80;70.84;100619.28;4918439;28;20043;-85
2021/10/06 07:53:11;;;;;;;2.20;0.57;;;;;;;12.98;70.05;100631.19;4907288;28;20051;-85
2021/10/06 07:55:37;;;;;;;2.05;0.70;;;;;;;13.15;69.69;100628.22;4920676;28;20067;-84
2021/10/06 07:58:04;;;;;;;2.38;0.65;;;;;;;13.26;69.43;100638.53;4906809;28;20535;-85
2021/10/06 08:00:30;;;;;;;0.95;0.30;;;;;;;13.25;69.65;100635.03;4916574;28;20051;-85
2021/10/06 08:02:57;;;;;;;3.85;0.70;;;;;;;13.28;69.28;100636.75;4907788;28;20066;-84
2021/10/06 08:05:24;;;;;;;2.20;0.40;;;;;;;13.36;68.57;100635.72;4905990;28;20170;-85
2021/10/06 08:07:50;;;;;;;4.70;1.00;;;;;;;13.37;68.54;100652.34;4905235;28;20046;-84
2021/10/06 08:10:16;;;;;;;4.28;0.50;;;;;;;13.38;68.04;100654.94;4923403;28;20058;-85
2021/10/06 08:12:43;;;;;;;4.18;1.02;;;;;;;13.38;68.58;100661.97;4916449;28;20047;-84
2021/10/06 08:15:10;;;;;;;1.95;0.47;;;;;;;13.33;68.59;100663.81;4908502;28;20419;-85
2021/10/06 08:17:37;;;;;;;2.38;0.43;;;;;;;13.33;69.01;100676.94;4938093;28;20549;-84
2021/10/06 08:20:05;;;;;;;2.53;1.00;;;;;;;13.30;68.74;100687.53;4919989;28;20110;-84
2021/10/06 08:22:31;;;;;;;14.43;6.05;;;;;;;13.27;68.72;100683.22;4921082;28;20054;-84
2021/10/06 08:24:58;;;;;;;0.98;0.60;;;;;;;13.24;68.79;100673.63;4917727;28;20508;-86
2021/10/06 08:27:24;;;;;;;3.97;0.85;;;;;;;13.18;69.07;100676.34;4923361;28;20422;-84
2021/10/06 08:29:51;;;;;;;2.92;0.98;;;;;;;13.10;69.04;100683.50;4904557;28;20051;-84
2021/10/06 08:32:17;;;;;;;2.42;0.40;;;;;;;13.01;69.66;100679.31;4919923;28;20070;-83
2021/10/06 08:34:44;;;;;;;0.82;0.47;;;;;;;13.06;69.73;100689.72;4907877;28;20098;-84
2021/10/06 08:37:11;;;;;;;0.57;0.30;;;;;;;13.20;69.32;100692.09;4918936;28;20771;-84
2021/10/06 08:39:40;;;;;;;1.48;0.50;;;;;;;13.27;69.05;100669.19;4922785;28;20146;-85
2021/10/06 08:42:08;;;;;;;1.85;0.60;;;;;;;13.38;68.51;100685.66;4916603;28;20519;-84
2021/10/06 08:44:36;;;;;;;2.70;0.50;;;;;;;13.51;68.07;100697.63;4905977;28;20050;-84
2021/10/06 08:47:03;;;;;;;2.45;0.90;;;;;;;13.77;67.50;100687.47;4905424;28;20047;-84
2021/10/06 08:49:31;;;;;;;3.08;0.40;;;;;;;13.99;66.21;100693.13;4919081;28;20456;-84
2021/10/06 08:51:58;;;;;;;2.03;0.50;;;;;;;14.09;65.13;100696.41;4921870;28;20051;-85
2021/10/06 08:54:25;;;;;;;0.55;0.40;;;;;;;14.12;65.31;100696.34;4903624;28;20058;-84
2021/10/06 08:56:52;;;;;;;2.58;0.30;;;;;;;14.09;64.84;100683.25;4919336;28;20510;-84
2021/10/06 08:59:19;;;;;;;1.02;0.47;;;;;;;14.11;64.82;100695.47;4920632;28;20412;-83
2021/10/06 09:01:46;;;;;;;1.10;0.47;;;;;;;14.11;65.22;100692.84;4920800;28;20062;-84
2021/10/06 09:04:13;;;;;;;3.60;0.88;;;;;;;14.05;65.32;100698.25;4906418;28;20058;-83
2021/10/06 09:06:43;;;;;;;3.70;0.57;;;;;;;13.94;65.53;100693.22;4903748;28;20648;-84
2021/10/06 09:09:23;;;;;;;4.43;0.40;;;;;;;13.79;66.35;100698.81;4906669;28;20125;-84
2021/10/06 09:11:56;;;;;;;1.40;0.45;;;;;;;13.68;66.27;100697.28;4919812;28;20126;-84
2021/10/06 09:14:23;;;;;;;2.95;0.43;;;;;;;13.72;66.74;100698.94;4918202;28;20067;-84
2021/10/06 09:17:19;;;;;;;1.50;0.73;;;;;;;13.84;65.31;100689.06;4923421;28;20067;-84
2021/10/06 09:19:53;;;;;;;0.40;0.40;;;;;;;13.95;65.41;100699.34;4921464;29;20043;-84
2021/10/06 09:22:27;;;;;;;3.15;0.60;;;;;;;14.07;64.87;100699.09;4917768;28;20518;-85
2021/10/06 09:25:03;;;;;;;1.88;0.35;;;;;;;14.18;63.42;100698.84;4914911;28;20039;-85
2021/10/06 09:27:34;;;;;;;1.75;0.30;;;;;;;14.37;62.39;100710.66;4920992;28;20883;-85
2021/10/06 09:30:14;;;;;;;0.52;0.50;;;;;;;14.50;62.34;100710.38;4904435;28;20053;-85
2021/10/06 09:32:44;;;;;;;1.77;0.17;;;;;;;14.47;61.85;100713.06;4903149;28;20066;-85
2021/10/06 09:35:23;;;;;;;4.50;0.40;;;;;;;14.57;61.79;100714.59;4916137;28;20480;-85
2021/10/06 09:37:55;;;;;;;2.15;0.60;;;;;;;15.08;59.39;100709.81;4922072;28;20600;-84
2021/10/06 09:40:30;;;;;;;1.30;0.30;;;;;;;15.42;59.26;100722.94;4921942;28;20062;-85
2021/10/06 09:43:04;;;;;;;1.50;0.43;;;;;;;15.62;58.93;100719.75;4917349;28;20047;-85
2021/10/06 09:45:36;;;;;;;2.90;0.63;;;;;;;16.77;56.74;100718.88;4905223;28;20043;-84
2021/10/06 09:48:12;;;;;;;0.30;0.20;;;;;;;17.93;52.92;100723.56;4916775;28;20047;-86
2021/10/06 09:50:50;;;;;;;2.75;0.50;;;;;;;18.10;52.30;100727.38;4906064;28;20908;-84
2021/10/06 09:53:21;;;;;;;1.73;0.47;;;;;;;17.97;50.73;100737.56;4930149;28;20725;-85
2021/10/06 09:55:53;;;;;;;1.70;0.38;;;;;;;17.50;51.33;100741.03;4920022;28;20403;-84
2021/10/06 09:58:21;;;;;;;1.08;0.35;;;;;;;17.18;53.41;100736.00;4917714;28;20047;-85
2021/10/06 10:00:50;;;;;;;0.40;0.17;;;;;;;16.86;52.53;100735.28;4919291;28;20055;-84
2021/10/06 10:03:16;;;;;;;2.22;0.40;;;;;;;16.71;53.81;100743.72;4917307;28;20070;-84
2021/10/06 10:05:43;;;;;;;1.48;0.30;;;;;;;16.63;53.88;100743.97;4900960;28;20051;-85
2021/10/06 10:08:10;;;;;;;2.47;1.20;;;;;;;16.63;53.86;100751.88;4905978;28;20047;-84
2021/10/06 10:10:39;;;;;;;4.70;0.32;;;;;;;16.58;54.11;100743.25;4904580;28;20075;-84
2021/10/06 10:13:07;;;;;;;1.33;0.55;;;;;;;16.44;54.19;100741.06;4920992;28;20070;-85
2021/10/06 10:15:34;;;;;;;2.65;0.40;;;;;;;16.17;54.10;100743.66;4920333;28;20047;-84
2021/10/06 10:18:05;;;;;;;1.00;0.38;;;;;;;15.91;55.06;100751.50;4916544;28;20051;-85
2021/10/06 10:20:39;;;;;;;4.50;0.60;;;;;;;15.54;55.74;100751.63;4921605;28;20047;-85
2021/10/06 10:23:06;;;;;;;0.70;0.22;;;;;;;15.33;56.82;100761.00;4914573;28;20047;-84
2021/10/06 10:25:43;;;;;;;3.30;0.30;;;;;;;15.08;57.13;100762.56;4908486;28;20047;-85
2021/10/06 10:28:17;;;;;;;0.60;0.28;;;;;;;14.90;57.42;100767.41;4903741;28;20126;-85
2021/10/06 10:30:56;;;;;;;0.80;0.30;;;;;;;14.83;57.37;100779.84;4921286;28;20155;-85
2021/10/06 10:33:47;;;;;;;1.20;0.38;;;;;;;15.10;56.84;100777.44;4940779;28;20929;-85
2021/10/06 10:36:33;;;;;;;0.55;0.40;;;;;;;15.75;55.74;100778.31;4922271;28;20415;-85
2021/10/06 10:39:05;;;;;;;0.38;0.30;;;;;;;17.02;52.07;100782.38;4919825;28;20048;-84
2021/10/06 10:41:47;;;;;;;0.75;0.40;;;;;;;17.51;50.80;100777.19;4911615;28;20047;-85
2021/10/06 10:44:25;;;;;;;2.45;0.50;;;;;;;17.43;50.33;100781.88;4905247;28;20759;-85
2021/10/06 10:47:01;;;;;;;0.95;0.10;;;;;;;16.98;50.75;100778.13;4914939;28;20830;-85
2021/10/06 10:49:43;;;;;;;1.60;0.40;;;;;;;16.48;52.35;100787.63;4923425;28;20468;-84
2021/10/06 10:52:10;;;;;;;4.53;0.70;;;;;;;15.90;53.76;100792.03;4904218;28;20902;-85
2021/10/06 10:54:42;;;;;;;0.50;0.40;;;;;;;15.56;54.69;100788.50;4921997;28;21782;-84
2021/10/06 10:57:25;;;;;;;2.33;0.43;;;;;;;15.26;56.19;100793.69;4920578;28;20566;-84
2021/10/06 10:59:57;;;;;;;1.40;0.40;;;;;;;15.09;57.03;100790.66;4926849;28;20055;-84
2021/10/06 11:02:30;;;;;;;0.38;0.28;;;;;;;14.93;57.74;100793.66;4918482;28;20969;-84
2021/10/06 11:05:05;;;;;;;0.82;0.40;;;;;;;14.76;58.64;100796.72;4923214;28;20679;-84
2021/10/06 11:07:31;;;;;;;1.63;0.40;;;;;;;14.62;59.58;100798.78;4914067;28;20063;-84
2021/10/06 11:10:26;;;;;;;1.42;0.80;;;;;;;14.39;61.70;100808.06;4920694;28;20057;-85
2021/10/06 11:13:03;;;;;;;4.40;0.55;;;;;;;14.06;62.91;100821.06;4920626;28;20313;-85
2021/10/06 11:15:32;;;;;;;1.55;0.28;;;;;;;13.66;65.24;100845.53;4905393;28;20047;-84
2021/10/06 11:18:18;;;;;;;1.02;0.30;;;;;;;13.34;67.75;100844.31;4924045;28;20134;-85
2021/10/06 11:20:52;;;;;;;1.10;0.60;;;;;;;12.99;73.36;100845.78;4921900;28;20047;-86
2021/10/06 11:23:43;;;;;;;0.52;0.30;;;;;;;12.57;78.47;100851.66;4926014;28;20192;-84
2021/10/06 11:26:17;;;;;;;0.45;0.45;;;;;;;12.42;78.86;100847.47;4901227;28;20106;-85
2021/10/06 11:28:50;;;;;;;2.33;0.30;;;;;;;12.79;78.48;100849.59;4906901;28;20082;-86
2021/10/06 11:31:25;;;;;;;3.10;0.63;;;;;;;13.32;75.19;100840.84;4935044;28;20129;-86
2021/10/06 11:33:53;;;;;;;1.98;0.30;;;;;;;13.57;74.06;100851.81;4905889;28;20119;-87